Time;durP1;ratioP1;P1;durP2;ratioP2;P2;SDS_P1;SDS_P2;PMS_P1;PMS_P2;Temp;Humidity;BMP_temperature;BMP_pressure;BME280_temperature;BME280_humidity;BME280_pressure;Samples;Min_cycle;Max_cycle;Signal;HPM_P1;HPM_P2
2021/07/05 00:00:48;;;;;;;;;2.00;2.00;;;;;-143.39;100.00;63593.47;5076220;28;48094;-84
2021/07/05 00:03:14;;;;;;;;;5.00;2.00;;;;;-143.39;100.00;63593.47;5078377;28;46599;-83
2021/07/05 00:05:40;;;;;;;;;3.75;2.75;;;;;-143.39;100.00;63593.47;5069567;28;45703;-83
2021/07/05 00:08:05;;;;;;;;;3.75;1.50;;;;;-143.39;100.00;63593.47;5083555;27;45516;-82
2021/07/05 00:10:31;;;;;;;;;5.00;2.00;;;;;-143.39;100.00;63593.47;5082286;28;45250;-82
2021/07/05 00:12:57;;;;;;;;;2.50;2.50;;;;;-143.39;100.00;63593.47;5074245;28;45725;-81
2021/07/05 00:15:26;;;;;;;;;3.50;3.00;;;;;-143.39;100.00;63593.47;5069127;28;45357;-82
2021/07/05 00:17:56;;;;;;;;;4.75;3.00;;;;;-143.39;100.00;63593.47;5072064;28;45405;-83
2021/07/05 00:20:22;;;;;;;;;3.25;1.75;;;;;-143.39;100.00;63593.47;5062506;28;45389;-82
2021/07/05 00:22:48;;;;;;;;;2.00;2.00;;;;;-143.39;100.00;63593.47;5061965;28;45511;-82
2021/07/05 00:25:14;;;;;;;;;2.25;2.25;;;;;-143.39;100.00;63593.47;5075164;28;45412;-83
2021/07/05 00:27:41;;;;;;;;;4.00;3.50;;;;;-143.39;100.00;63593.47;5080167;28;45504;-81
2021/07/05 00:30:07;;;;;;;;;3.00;3.00;;;;;-143.39;100.00;63593.47;5080120;28;46239;-81
2021/07/05 00:32:33;;;;;;;;;3.00;3.00;;;;;-143.39;100.00;63593.47;5081291;28;45417;-81
2021/07/05 00:34:58;;;;;;;;;5.00;2.00;;;;;-143.39;100.00;63593.47;5073603;28;45611;-81
2021/07/05 00:37:24;;;;;;;;;6.50;3.00;;;;;-143.39;100.00;63593.47;5073752;28;45651;-82
2021/07/05 00:39:49;;;;;;;;;4.00;3.00;;;;;-143.39;100.00;63593.47;5073827;28;48009;-82
2021/07/05 00:42:15;;;;;;;;;2.00;2.00;;;;;-143.39;100.00;63593.47;5074586;28;45763;-83
2021/07/05 00:44:40;;;;;;;;;4.75;2.75;;;;;-143.39;100.00;63593.47;5075508;28;45327;-83
2021/07/05 00:47:06;;;;;;;;;3.50;2.00;;;;;-143.39;100.00;63593.47;5075111;28;45948;-83
2021/07/05 00:49:32;;;;;;;;;6.25;3.00;;;;;-143.39;100.00;63593.47;5058757;28;45959;-83
2021/07/05 00:51:57;;;;;;;;;4.50;2.50;;;;;-143.39;100.00;63593.47;5075849;28;45352;-82
2021/07/05 00:54:23;;;;;;;;;4.50;2.00;;;;;-143.39;100.00;63593.47;5078112;28;45535;-82
2021/07/05 00:56:49;;;;;;;;;2.25;2.25;;;;;-143.39;100.00;63593.47;5076273;28;45438;-83
2021/07/05 00:59:16;;;;;;;;;2.00;2.00;;;;;-143.39;100.00;63593.47;5060722;28;45432;-83
2021/07/05 01:01:42;;;;;;;;;3.25;2.00;;;;;-143.39;100.00;63593.47;5076883;28;45370;-83
2021/07/05 01:04:07;;;;;;;;;2.75;2.75;;;;;-143.39;100.00;63593.47;5066255;28;45210;-83
2021/07/05 01:06:33;;;;;;;;;6.00;3.00;;;;;-143.39;100.00;63593.47;5078027;28;45425;-83
2021/07/05 01:08:58;;;;;;;;;2.25;2.25;;;;;-143.39;100.00;63593.47;5062297;28;46030;-83
2021/07/05 01:11:24;;;;;;;;;1.75;1.50;;;;;-143.39;100.00;63593.47;5078356;28;45295;-83
2021/07/05 01:13:50;;;;;;;;;2.00;2.00;;;;;-143.39;100.00;63593.47;5064583;28;45376;-83
2021/07/05 01:16:15;;;;;;;;;3.00;3.00;;;;;-143.39;100.00;63593.47;5075507;28;45356;-83
2021/07/05 01:18:40;;;;;;;;;1.50;1.50;;;;;-143.39;100.00;63593.47;5075021;28;47376;-83
2021/07/05 01:21:06;;;;;;;;;3.00;2.00;;;;;-143.39;100.00;63593.47;5078138;28;45769;-83
2021/07/05 01:23:31;;;;;;;;;2.25;2.00;;;;;-143.39;100.00;63593.47;5070090;28;45411;-83
2021/07/05 01:25:57;;;;;;;;;3.00;2.00;;;;;-143.39;100.00;63593.47;5077488;28;45673;-82
2021/07/05 01:28:23;;;;;;;;;1.75;1.50;;;;;-143.39;100.00;63593.47;5072844;28;45366;-83
2021/07/05 01:30:48;;;;;;;;;2.25;1.25;;;;;-143.39;100.00;63593.47;5079549;28;45521;-82
2021/07/05 01:33:15;;;;;;;;;2.00;2.00;;;;;-143.39;100.00;63593.47;5077520;28;45533;-82
2021/07/05 01:35:41;;;;;;;;;1.75;1.75;;;;;-143.39;100.00;63593.47;5074585;28;45334;-83
2021/07/05 01:38:19;;;;;;;;;5.25;2.00;;;;;-143.39;100.00;63593.47;5082245;28;47518;-83
2021/07/05 01:40:51;;;;;;;;;3.25;1.75;;;;;-143.39;100.00;63593.47;5079794;28;45540;-82
2021/07/05 01:43:17;;;;;;;;;2.00;2.00;;;;;-143.39;100.00;63593.47;5070546;28;45324;-82
2021/07/05 01:45:42;;;;;;;;;3.50;2.00;;;;;-143.39;100.00;63593.47;5062810;28;45164;-83
2021/07/05 01:48:08;;;;;;;;;1.50;1.00;;;;;-143.39;100.00;63593.47;5063709;28;46176;-83
2021/07/05 01:50:33;;;;;;;;;3.00;1.75;;;;;-143.39;100.00;63593.47;5064891;28;45234;-82
2021/07/05 01:52:59;;;;;;;;;1.00;1.00;;;;;-143.39;100.00;63593.47;5080988;28;45321;-82
2021/07/05 01:55:32;;;;;;;;;4.25;2.00;;;;;-143.39;100.00;63593.47;5078489;28;45527;-83
2021/07/05 01:57:58;;;;;;;;;1.75;1.75;;;;;-143.39;100.00;63593.47;5081317;28;48725;-83
2021/07/05 02:00:24;;;;;;;;;2.00;2.00;;;;;-143.39;100.00;63593.47;5070240;28;46929;-83
2021/07/05 02:02:52;;;;;;;;;1.00;0.75;;;;;-143.39;100.00;63593.47;5076174;28;45303;-82
2021/07/05 02:05:18;;;;;;;;;1.00;1.00;;;;;-143.39;100.00;63593.47;5070668;28;45251;-82
2021/07/05 02:07:46;;;;;;;;;4.25;2.00;;;;;-143.39;100.00;63593.47;5064561;28;45496;-83
2021/07/05 02:10:15;;;;;;;;;2.50;2.00;;;;;-143.39;100.00;63593.47;5063347;28;45229;-82
2021/07/05 02:12:42;;;;;;;;;1.25;1.00;;;;;-143.39;100.00;63593.47;5065498;28;45405;-82
2021/07/05 02:15:09;;;;;;;;;4.25;2.00;;;;;-143.39;100.00;63593.47;5062827;28;45492;-82
2021/07/05 02:17:36;;;;;;;;;2.00;2.00;;;;;-143.39;100.00;63593.47;5074291;28;47218;-82
2021/07/05 02:20:05;;;;;;;;;3.25;2.00;;;;;-143.39;100.00;63593.47;5066152;28;46333;-83
2021/07/05 02:22:31;;;;;;;;;3.00;1.00;;;;;-143.39;100.00;63593.47;5069610;28;45492;-82
2021/07/05 02:24:56;;;;;;;;;2.75;2.00;;;;;-143.39;100.00;63593.47;5066428;28;45375;-83
2021/07/05 02:27:22;;;;;;;;;1.50;1.50;;;;;-143.39;100.00;63593.47;5061150;28;47422;-83
2021/07/05 02:29:47;;;;;;;;;2.75;2.75;;;;;-143.39;100.00;63593.47;5075943;28;45330;-82
2021/07/05 02:32:12;;;;;;;;;3.25;2.00;;;;;-143.39;100.00;63593.47;5076002;28;45559;-82
2021/07/05 02:34:38;;;;;;;;;3.00;2.50;;;;;-143.39;100.00;63593.47;5078931;28;45453;-82
2021/07/05 02:37:03;;;;;;;;;3.00;2.00;;;;;-143.39;100.00;63593.47;5070655;28;47052;-82
2021/07/05 02:39:29;;;;;;;;;6.00;2.25;;;;;-143.39;100.00;63593.47;5071229;28;45580;-81
2021/07/05 02:41:55;;;;;;;;;2.50;2.00;;;;;-143.39;100.00;63593.47;5067664;28;45240;-83
2021/07/05 02:44:20;;;;;;;;;3.50;2.50;;;;;-143.39;100.00;63593.47;5078780;28;45286;-83
2021/07/05 02:46:46;;;;;;;;;3.75;1.25;;;;;-143.39;100.00;63593.47;5070558;28;45372;-82
2021/07/05 02:49:11;;;;;;;;;2.75;2.00;;;;;-143.39;100.00;63593.47;5080001;28;45367;-82
2021/07/05 02:51:37;;;;;;;;;3.50;2.00;;;;;-143.39;100.00;63593.47;5062091;28;45295;-83
2021/07/05 02:54:04;;;;;;;;;1.75;1.75;;;;;-143.39;100.00;63593.47;5075255;28;45331;-83
2021/07/05 02:56:30;;;;;;;;;2.25;1.25;;;;;-143.39;100.00;63593.47;5078665;28;45269;-83
2021/07/05 02:58:55;;;;;;;;;3.00;1.00;;;;;-143.39;100.00;63593.47;5065573;28;45361;-82
2021/07/05 03:01:22;;;;;;;;;4.00;2.00;;;;;-143.39;100.00;63593.47;5069726;28;45275;-82
2021/07/05 03:03:48;;;;;;;;;5.00;1.75;;;;;-143.39;100.00;63593.47;5084227;28;45519;-82
2021/07/05 03:06:14;;;;;;;;;2.00;2.00;;;;;-143.39;100.00;63593.47;5071916;28;45730;-82
2021/07/05 03:08:39;;;;;;;;;2.25;2.25;;;;;-143.39;100.00;63593.47;5069321;28;45459;-81
2021/07/05 03:11:07;;;;;;;;;2.25;1.75;;;;;-143.39;100.00;63593.47;5076331;28;45598;-81
2021/07/05 03:13:33;;;;;;;;;1.75;1.75;;;;;-143.39;100.00;63593.47;5064283;28;45332;-82
2021/07/05 03:15:58;;;;;;;;;2.75;2.75;;;;;-143.39;100.00;63593.47;5065956;28;45484;-82
2021/07/05 03:18:24;;;;;;;;;1.75;1.75;;;;;-143.39;100.00;63593.47;5078448;28;45406;-83
2021/07/05 03:20:52;;;;;;;;;4.00;2.75;;;;;-143.39;100.00;63593.47;5076240;28;45842;-83
2021/07/05 03:23:19;;;;;;;;;4.25;2.25;;;;;-143.39;100.00;63593.47;5079773;28;45457;-82
2021/07/05 03:25:45;;;;;;;;;2.50;1.25;;;;;-143.39;100.00;63593.47;5063809;28;45807;-82
2021/07/05 03:28:12;;;;;;;;;2.50;2.00;;;;;-143.39;100.00;63593.47;5074703;28;45674;-82
2021/07/05 03:30:39;;;;;;;;;6.00;3.25;;;;;-143.39;100.00;63593.47;5061971;28;45173;-82
2021/07/05 03:33:05;;;;;;;;;1.75;1.75;;;;;-143.39;100.00;63593.47;5076335;28;45487;-82
2021/07/05 03:35:31;;;;;;;;;1.75;1.75;;;;;-143.39;100.00;63593.47;5080317;28;45434;-82
2021/07/05 03:37:57;;;;;;;;;4.50;3.75;;;;;-143.39;100.00;63593.47;5071712;28;45545;-82
2021/07/05 03:40:29;;;;;;;;;4.50;3.50;;;;;-143.39;100.00;63593.47;5077933;28;45355;-82
2021/07/05 03:42:55;;;;;;;;;4.00;4.00;;;;;-143.39;100.00;63593.47;5071764;28;45495;-82
2021/07/05 03:45:24;;;;;;;;;3.00;3.00;;;;;-143.39;100.00;63593.47;5066466;28;46167;-82
2021/07/05 03:47:50;;;;;;;;;4.50;3.00;;;;;-143.39;100.00;63593.47;5069545;28;45358;-82
2021/07/05 03:50:18;;;;;;;;;3.50;3.50;;;;;-143.39;100.00;63593.47;5079702;28;45337;-82
2021/07/05 03:52:44;;;;;;;;;6.25;4.00;;;;;-143.39;100.00;63593.47;5067096;28;45492;-82
2021/07/05 03:55:13;;;;;;;;;7.50;3.75;;;;;-143.39;100.00;63593.47;5061171;28;45377;-82
2021/07/05 03:57:38;;;;;;;;;4.50;3.00;;;;;-143.39;100.00;63593.47;5067598;28;45511;-83
2021/07/05 04:00:10;;;;;;;;;3.00;3.00;;;;;-143.39;100.00;63593.47;5076801;28;45594;-83
2021/07/05 04:02:35;;;;;;;;;5.25;4.75;;;;;-143.39;100.00;63593.47;5072485;28;45464;-83
2021/07/05 04:05:02;;;;;;;;;7.25;4.75;;;;;-143.39;100.00;63593.47;5079623;28;48015;-82
2021/07/05 04:07:27;;;;;;;;;6.50;4.50;;;;;-143.39;100.00;63593.47;5060289;28;45928;-83
2021/07/05 04:09:53;;;;;;;;;5.00;5.00;;;;;-143.39;100.00;63593.47;5067265;28;45406;-82
2021/07/05 04:12:22;;;;;;;;;5.25;4.00;;;;;-143.39;100.00;63593.47;5076772;28;45329;-83
2021/07/05 04:14:49;;;;;;;;;3.50;3.00;;;;;-143.39;100.00;63593.47;5060386;28;46164;-83
2021/07/05 04:17:14;;;;;;;;;3.25;3.25;;;;;-143.39;100.00;63593.47;5072230;28;46045;-82
2021/07/05 04:19:40;;;;;;;;;4.00;3.00;;;;;-143.39;100.00;63593.47;5067882;28;45174;-83
2021/07/05 04:22:05;;;;;;;;;3.00;3.00;;;;;-143.39;100.00;63593.47;5072413;28;45522;-83
2021/07/05 04:24:31;;;;;;;;;5.00;4.50;;;;;-143.39;100.00;63593.47;5078186;28;48033;-82
2021/07/05 04:26:56;;;;;;;;;6.50;3.50;;;;;-143.39;100.00;63593.47;5073488;27;47063;-83
2021/07/05 04:29:22;;;;;;;;;5.75;4.00;;;;;-143.39;100.00;63593.47;5067138;28;45386;-83
2021/07/05 04:31:47;;;;;;;;;4.75;4.00;;;;;-143.39;100.00;63593.47;5070938;28;46089;-82
2021/07/05 04:34:13;;;;;;;;;6.00;4.00;;;;;-143.39;100.00;63593.47;5076511;28;47174;-82
2021/07/05 04:36:38;;;;;;;;;2.50;2.50;;;;;-143.39;100.00;63593.47;5077764;28;45401;-82
2021/07/05 04:39:05;;;;;;;;;3.00;3.00;;;;;-143.39;100.00;63593.47;5078031;28;45426;-82
2021/07/05 04:41:31;;;;;;;;;4.00;3.50;;;;;-143.39;100.00;63593.47;5072959;28;45445;-82
2021/07/05 04:43:57;;;;;;;;;1.25;1.25;;;;;-143.39;100.00;63593.47;5066237;28;47300;-83
2021/07/05 04:46:24;;;;;;;;;2.25;2.25;;;;;-143.39;100.00;63593.47;5073657;28;45378;-82
2021/07/05 04:48:49;;;;;;;;;2.00;2.00;;;;;-143.39;100.00;63593.47;5062106;28;45488;-82
2021/07/05 04:51:15;;;;;;;;;2.25;2.00;;;;;-143.39;100.00;63593.47;5072062;28;45465;-82
2021/07/05 04:53:41;;;;;;;;;5.00;5.00;;;;;-143.39;100.00;63593.47;5078754;28;45409;-82
2021/07/05 04:56:06;;;;;;;;;3.00;3.00;;;;;-143.39;100.00;63593.47;5067483;28;45433;-81
2021/07/05 04:58:32;;;;;;;;;4.75;3.00;;;;;-143.39;100.00;63593.47;5071980;28;45380;-81
2021/07/05 05:00:57;;;;;;;;;3.50;3.50;;;;;-143.39;100.00;63593.47;5064034;28;45295;-81
2021/07/05 05:03:22;;;;;;;;;1.25;1.25;;;;;-143.39;100.00;63593.47;5073443;28;47261;-82
2021/07/05 05:05:48;;;;;;;;;3.50;2.50;;;;;-143.39;100.00;63593.47;5068593;28;45295;-82
2021/07/05 05:08:14;;;;;;;;;3.50;1.75;;;;;-143.39;100.00;63593.47;5065720;28;45436;-82
2021/07/05 05:10:41;;;;;;;;;3.00;3.00;;;;;-143.39;100.00;63593.47;5069244;28;45355;-82
2021/07/05 05:13:07;;;;;;;;;1.75;1.75;;;;;-143.39;100.00;63593.47;5065024;28;46027;-82
2021/07/05 05:15:33;;;;;;;;;4.00;2.50;;;;;-143.39;100.00;63593.47;5066440;28;45227;-82
2021/07/05 05:17:58;;;;;;;;;4.00;2.25;;;;;-143.39;100.00;63593.47;5074237;28;45272;-83
2021/07/05 05:20:24;;;;;;;;;4.25;4.00;;;;;-143.39;100.00;63593.47;5074747;28;45195;-82
2021/07/05 05:22:50;;;;;;;;;4.00;4.00;;;;;-143.39;100.00;63593.47;5062882;28;45445;-82
2021/07/05 05:25:18;;;;;;;;;2.00;2.00;;;;;-143.39;100.00;63593.47;5064645;28;45943;-82
2021/07/05 05:27:44;;;;;;;;;2.50;2.50;;;;;-143.39;100.00;63593.47;5072745;28;45856;-83
2021/07/05 05:30:12;;;;;;;;;3.00;3.00;;;;;-143.39;100.00;63593.47;5078472;28;45824;-83
2021/07/05 05:32:38;;;;;;;;;2.25;2.25;;;;;-143.39;100.00;63593.47;5077230;28;48151;-83
2021/07/05 05:35:06;;;;;;;;;5.50;4.00;;;;;-143.39;100.00;63593.47;5072413;28;45444;-83
2021/07/05 05:37:32;;;;;;;;;3.00;3.00;;;;;-143.39;100.00;63593.47;5076547;28;45611;-83
2021/07/05 05:39:58;;;;;;;;;2.75;2.75;;;;;-143.39;100.00;63593.47;5075384;27;45549;-83
2021/07/05 05:42:23;;;;;;;;;6.50;2.00;;;;;-143.39;100.00;63593.47;5077108;28;46173;-83
2021/07/05 05:44:48;;;;;;;;;3.00;2.00;;;;;-143.39;100.00;63593.47;5078124;28;45436;-85
2021/07/05 05:47:14;;;;;;;;;1.00;1.00;;;;;-143.39;100.00;63593.47;5080521;28;45697;-85
2021/07/05 05:49:40;;;;;;;;;2.00;2.00;;;;;-143.39;100.00;63593.47;5078009;28;45530;-86
2021/07/05 05:52:06;;;;;;;;;0.00;0.00;;;;;-143.39;100.00;63593.47;5077750;28;47238;-85
2021/07/05 05:54:32;;;;;;;;;3.00;1.50;;;;;-143.39;100.00;63593.47;5062785;28;45233;-86
2021/07/05 05:56:58;;;;;;;;;3.75;1.00;;;;;-143.39;100.00;63593.47;5072812;28;45297;-86
2021/07/05 05:59:23;;;;;;;;;1.75;1.00;;;;;-143.39;100.00;63593.47;5066292;28;45398;-85
2021/07/05 06:01:50;;;;;;;;;1.00;1.00;;;;;-143.39;100.00;63593.47;5061824;28;45707;-86
2021/07/05 06:04:17;;;;;;;;;2.75;1.00;;;;;-143.39;100.00;63593.47;5063310;28;46239;-86
2021/07/05 06:06:42;;;;;;;;;1.50;1.50;;;;;-143.39;100.00;63593.47;5062362;28;45489;-84
2021/07/05 06:09:08;;;;;;;;;1.50;1.50;;;;;-143.39;100.00;63593.47;5061897;28;45303;-83
2021/07/05 06:11:35;;;;;;;;;3.00;2.00;;;;;-143.39;100.00;63593.47;5063587;28;47292;-83
2021/07/05 06:14:01;;;;;;;;;2.75;2.75;;;;;-143.39;100.00;63593.47;5062645;28;45197;-84
2021/07/05 06:16:26;;;;;;;;;1.50;1.50;;;;;-143.39;100.00;63593.47;5060733;28;45367;-84
2021/07/05 06:18:51;;;;;;;;;3.00;1.00;;;;;-143.39;100.00;63593.47;5061599;28;45215;-84
2021/07/05 06:21:19;;;;;;;;;2.25;2.00;;;;;-143.39;100.00;63593.47;5074695;28;47036;-82
2021/07/05 06:23:45;;;;;;;;;1.00;1.00;;;;;-143.39;100.00;63593.47;5067364;28;45241;-82
2021/07/05 06:26:11;;;;;;;;;3.00;2.00;;;;;-143.39;100.00;63593.47;5067004;28;45476;-82
2021/07/05 06:28:36;;;;;;;;;3.00;2.00;;;;;-143.39;100.00;63593.47;5064170;28;45269;-82
2021/07/05 06:31:03;;;;;;;;;2.00;2.00;;;;;-143.39;100.00;63593.47;5063644;28;45480;-82
2021/07/05 06:33:29;;;;;;;;;3.25;2.00;;;;;-143.39;100.00;63593.47;5063028;28;45402;-82
2021/07/05 06:35:54;;;;;;;;;3.75;3.00;;;;;-143.39;100.00;63593.47;5076031;28;45376;-82
2021/07/05 06:38:20;;;;;;;;;3.00;3.00;;;;;-143.39;100.00;63593.47;5062385;28;45504;-82
2021/07/05 06:40:47;;;;;;;;;2.00;2.00;;;;;-143.39;100.00;63593.47;5060711;28;48229;-82
2021/07/05 06:43:13;;;;;;;;;3.25;3.25;;;;;-143.39;100.00;63593.47;5065572;28;45223;-83
2021/07/05 06:45:40;;;;;;;;;4.25;2.75;;;;;-143.39;100.00;63593.47;5060885;28;45473;-83
2021/07/05 06:48:07;;;;;;;;;4.00;3.00;;;;;-143.39;100.00;63593.47;5061575;28;45846;-83
2021/07/05 06:50:32;;;;;;;;;1.75;1.75;;;;;-143.39;100.00;63593.47;5065611;28;46797;-83
2021/07/05 06:52:58;;;;;;;;;3.00;2.50;;;;;-143.39;100.00;63593.47;5062830;28;46027;-83
2021/07/05 06:55:24;;;;;;;;;5.00;1.50;;;;;-143.39;100.00;63593.47;5062501;28;45457;-83
2021/07/05 06:57:49;;;;;;;;;3.75;2.50;;;;;-143.39;100.00;63593.47;5077520;28;45425;-83
2021/07/05 07:00:18;;;;;;;;;3.00;2.75;;;;;-143.39;100.00;63593.47;5063206;28;45461;-82
2021/07/05 07:02:44;;;;;;;;;3.25;3.00;;;;;-143.39;100.00;63593.47;5072720;28;45429;-82
2021/07/05 07:05:13;;;;;;;;;2.00;2.00;;;;;-143.39;100.00;63593.47;5061878;28;45231;-82
2021/07/05 07:07:43;;;;;;;;;8.00;4.25;;;;;-143.39;100.00;63593.47;5062046;28;45410;-83
2021/07/05 07:10:09;;;;;;;;;5.75;4.00;;;;;-143.39;100.00;63593.47;5064056;28;45290;-82
2021/07/05 07:12:36;;;;;;;;;2.00;2.00;;;;;-143.39;100.00;63593.47;5066113;28;45370;-82
2021/07/05 07:15:04;;;;;;;;;1.25;1.25;;;;;-143.39;100.00;63593.47;5063898;28;45417;-83
2021/07/05 07:17:34;;;;;;;;;3.75;3.75;;;;;-143.39;100.00;63593.47;5067300;28;45485;-83
2021/07/05 07:20:02;;;;;;;;;5.75;4.00;;;;;-143.39;100.00;63593.47;5080450;28;47214;-83
2021/07/05 07:22:27;;;;;;;;;6.00;3.00;;;;;-143.39;100.00;63593.47;5081159;28;45574;-83
2021/07/05 07:24:53;;;;;;;;;9.75;6.50;;;;;-143.39;100.00;63593.47;5069503;28;45348;-83
2021/07/05 07:27:21;;;;;;;;;4.75;3.50;;;;;-143.39;100.00;63593.47;5070328;28;45627;-83
2021/07/05 07:29:47;;;;;;;;;4.00;4.00;;;;;-143.39;100.00;63593.47;5083800;28;47258;-83
2021/07/05 07:32:12;;;;;;;;;3.00;3.00;;;;;-143.39;100.00;63593.47;5066693;28;45191;-83
2021/07/05 07:34:39;;;;;;;;;2.00;2.00;;;;;-143.39;100.00;63593.47;5069632;28;45298;-83
2021/07/05 07:37:05;;;;;;;;;4.00;4.00;;;;;-143.39;100.00;63593.47;5064299;28;45519;-83
2021/07/05 07:39:43;;;;;;;;;4.25;3.00;;;;;-143.39;100.00;63593.47;5063829;28;45429;-82
2021/07/05 07:42:15;;;;;;;;;6.25;3.00;;;;;-143.39;100.00;63593.47;5062785;28;45568;-83
2021/07/05 07:44:40;;;;;;;;;6.75;5.75;;;;;-143.39;100.00;63593.47;5062385;28;45641;-82
2021/07/05 07:47:06;;;;;;;;;6.75;6.00;;;;;-143.39;100.00;63593.47;5072194;28;45464;-82
2021/07/05 07:49:33;;;;;;;;;6.25;4.25;;;;;-143.39;100.00;63593.47;5078700;28;47111;-83
2021/07/05 07:52:01;;;;;;;;;11.75;7.75;;;;;-143.39;100.00;63593.47;5063520;28;45441;-82
2021/07/05 07:54:27;;;;;;;;;24.00;14.00;;;;;-143.39;100.00;63593.47;5066168;28;45425;-82
2021/07/05 07:56:53;;;;;;;;;5.25;5.25;;;;;-143.39;100.00;63593.47;5067980;28;45803;-82
2021/07/05 07:59:20;;;;;;;;;7.50;7.00;;;;;-143.39;100.00;63593.47;5064939;28;45259;-81
2021/07/05 08:01:46;;;;;;;;;3.75;3.25;;;;;-143.39;100.00;63593.47;5061142;28;45401;-82
2021/07/05 08:04:11;;;;;;;;;7.00;6.00;;;;;-143.39;100.00;63593.47;5062703;28;45436;-81
2021/07/05 08:06:37;;;;;;;;;7.75;4.25;;;;;-143.39;100.00;63593.47;5059166;28;45398;-83
2021/07/05 08:09:05;;;;;;;;;7.75;6.00;;;;;-143.39;100.00;63593.47;5065875;28;46033;-81
2021/07/05 08:11:31;;;;;;;;;9.00;6.75;;;;;-143.39;100.00;63593.47;5062461;28;45398;-82
2021/07/05 08:13:58;;;;;;;;;6.00;6.00;;;;;-143.39;100.00;63593.47;5076554;28;45192;-82
2021/07/05 08:16:27;;;;;;;;;11.75;9.00;;;;;-143.39;100.00;63593.47;5061790;28;45312;-84
2021/07/05 08:18:53;;;;;;;;;10.25;7.00;;;;;-143.39;100.00;63593.47;5081198;28;47357;-83
2021/07/05 08:21:18;;;;;;;;;8.00;7.50;;;;;-143.39;100.00;63593.47;5082037;28;45981;-82
2021/07/05 08:23:44;;;;;;;;;6.50;5.50;;;;;-143.39;100.00;63593.47;5077880;28;45311;-83
2021/07/05 08:26:10;;;;;;;;;7.25;5.00;;;;;-143.39;100.00;63593.47;5070002;28;45352;-84
2021/07/05 08:28:36;;;;;;;;;9.00;7.00;;;;;-143.39;100.00;63593.47;5060115;28;45372;-84
2021/07/05 08:31:04;;;;;;;;;5.25;5.25;;;;;-143.39;100.00;63593.47;5058980;28;45241;-84
2021/07/05 08:33:31;;;;;;;;;8.00;7.25;;;;;-143.39;100.00;63593.47;5062921;28;45456;-84
2021/07/05 08:35:58;;;;;;;;;7.75;6.00;;;;;-143.39;100.00;63593.47;5063581;28;45486;-84
2021/07/05 08:38:24;;;;;;;;;6.50;6.50;;;;;-143.39;100.00;63593.47;5063313;28;45433;-84
2021/07/05 08:40:49;;;;;;;;;8.00;8.00;;;;;-143.39;100.00;63593.47;5063622;28;45267;-84
2021/07/05 08:43:17;;;;;;;;;7.50;5.25;;;;;-143.39;100.00;63593.47;5063619;28;45455;-84
2021/07/05 08:45:45;;;;;;;;;4.50;4.50;;;;;-143.39;100.00;63593.47;5062108;28;45867;-84
2021/07/05 08:48:13;;;;;;;;;8.75;4.25;;;;;-143.39;100.00;63593.47;5063326;28;46161;-84
2021/07/05 08:50:40;;;;;;;;;4.00;4.00;;;;;-143.39;100.00;63593.47;5063563;28;45363;-84
2021/07/05 08:53:06;;;;;;;;;3.00;3.00;;;;;-143.39;100.00;63593.47;5063671;28;45284;-84
2021/07/05 08:55:32;;;;;;;;;4.00;3.00;;;;;-143.39;100.00;63593.47;5066357;28;45532;-84
2021/07/05 08:57:57;;;;;;;;;2.75;2.75;;;;;-143.39;100.00;63593.47;5063586;27;45351;-84
2021/07/05 09:00:28;;;;;;;;;3.00;3.00;;;;;-143.39;100.00;63593.47;5063036;28;45390;-84
2021/07/05 09:02:59;;;;;;;;;1.00;1.00;;;;;-143.39;100.00;63593.47;5070251;28;45382;-84
2021/07/05 09:05:25;;;;;;;;;2.75;2.00;;;;;-143.39;100.00;63593.47;5083602;28;45421;-84
2021/07/05 09:08:22;;;;;;;;;2.00;2.00;;;;;-143.39;100.00;63593.47;5083451;28;46238;-84
2021/07/05 09:10:52;;;;;;;;;3.00;1.25;;;;;-143.39;100.00;63593.47;5048508;28;45462;-83
2021/07/05 09:13:30;;;;;;;;;0.00;0.00;;;;;-143.39;100.00;63593.47;5082180;28;45300;-83
2021/07/05 09:15:57;;;;;;;;;2.75;2.75;;;;;-143.39;100.00;63593.47;5083391;28;45372;-82
2021/07/05 09:18:29;;;;;;;;;2.50;2.50;;;;;-143.39;100.00;63593.47;5081724;28;45651;-84
2021/07/05 09:20:59;;;;;;;;;1.00;1.00;;;;;-143.39;100.00;63593.47;5082209;28;45285;-83
2021/07/05 09:23:25;;;;;;;;;1.50;1.50;;;;;-143.39;100.00;63593.47;5083785;27;45463;-83
2021/07/05 09:25:53;;;;;;;;;2.00;2.00;;;;;-143.39;100.00;63593.47;5083297;28;45499;-83
2021/07/05 09:28:22;;;;;;;;;5.25;3.50;;;;;-143.39;100.00;63593.47;5083228;27;46246;-83
2021/07/05 09:30:51;;;;;;;;;2.00;2.00;;;;;-143.39;100.00;63593.47;5082111;28;45921;-82
2021/07/05 09:33:21;;;;;;;;;3.00;2.00;;;;;-143.39;100.00;63593.47;5081807;28;45390;-84
2021/07/05 09:35:52;;;;;;;;;3.00;3.00;;;;;-143.39;100.00;63593.47;5082473;28;45422;-84
2021/07/05 09:38:42;;;;;;;;;3.00;3.00;;;;;-143.39;100.00;63593.47;5064611;28;47047;-83
2021/07/05 09:41:23;;;;;;;;;4.00;2.00;;;;;-143.39;100.00;63593.47;5061299;28;45411;-83
2021/07/05 09:43:55;;;;;;;;;3.00;3.00;;;;;-143.39;100.00;63593.47;5071705;27;45499;-83
2021/07/05 09:46:55;;;;;;;;;1.75;1.75;;;;;-143.39;100.00;63593.47;5062274;28;45362;-83
2021/07/05 09:49:50;;;;;;;;;2.75;2.75;;;;;-143.39;100.00;63593.47;5062277;28;45614;-82
2021/07/05 09:52:26;;;;;;;;;4.00;3.00;;;;;-143.39;100.00;63593.47;5061426;28;45640;-83
2021/07/05 09:54:51;;;;;;;;;4.00;3.50;;;;;-143.39;100.00;63593.47;5061495;28;45350;-83
2021/07/05 09:57:29;;;;;;;;;3.25;2.50;;;;;-143.39;100.00;63593.47;5068922;28;45470;-83
2021/07/05 10:00:21;;;;;;;;;3.50;2.00;;;;;-143.39;100.00;63593.47;5064735;28;45421;-82
2021/07/05 10:03:14;;;;;;;;;2.00;2.00;;;;;-143.39;100.00;63593.47;5058369;28;45490;-83
2021/07/05 10:05:46;;;;;;;;;1.50;1.50;;;;;-143.39;100.00;63593.47;5063191;28;45168;-83
2021/07/05 10:08:14;;;;;;;;;2.00;2.00;;;;;-143.39;100.00;63593.47;5072079;28;45647;-83
2021/07/05 10:10:43;;;;;;;;;2.25;2.00;;;;;-143.39;100.00;63593.47;5062018;28;45409;-83
2021/07/05 10:13:17;;;;;;;;;3.00;3.00;;;;;-143.39;100.00;63593.47;5060988;28;45506;-83
2021/07/05 10:15:43;;;;;;;;;3.25;2.00;;;;;-143.39;100.00;63593.47;5061665;28;45492;-83
2021/07/05 10:18:09;;;;;;;;;2.00;2.00;;;;;-143.39;100.00;63593.47;5074150;28;45512;-82
2021/07/05 10:20:40;;;;;;;;;3.00;1.00;;;;;-143.39;100.00;63593.47;5082419;28;45361;-83
2021/07/05 10:23:10;;;;;;;;;1.00;1.00;;;;;-143.39;100.00;63593.47;5084876;28;45501;-83
2021/07/05 10:25:39;;;;;;;;;2.25;2.00;;;;;-143.39;100.00;63593.47;5083894;28;45367;-81
2021/07/05 10:28:06;;;;;;;;;4.00;3.00;;;;;-143.39;100.00;63593.47;5083640;28;45218;-82
2021/07/05 10:30:33;;;;;;;;;3.00;2.00;;;;;-143.39;100.00;63593.47;5082564;28;46048;-83
2021/07/05 10:33:00;;;;;;;;;2.50;2.00;;;;;-143.39;100.00;63593.47;5082239;28;45437;-82
2021/07/05 10:35:42;;;;;;;;;1.00;1.00;;;;;-143.39;100.00;63593.47;5082363;28;45374;-83
2021/07/05 10:38:20;;;;;;;;;1.50;1.50;;;;;-143.39;100.00;63593.47;5064380;28;45444;-83
2021/07/05 10:40:48;;;;;;;;;3.00;1.00;;;;;-143.39;100.00;63593.47;5064497;28;46059;-84
2021/07/05 10:43:20;;;;;;;;;3.00;2.00;;;;;-143.39;100.00;63593.47;5064278;28;45424;-83
2021/07/05 10:45:52;;;;;;;;;2.00;2.00;;;;;-143.39;100.00;63593.47;5064055;28;45312;-83
2021/07/05 10:48:39;;;;;;;;;3.00;2.25;;;;;-143.39;100.00;63593.47;5070654;28;45568;-83
2021/07/05 10:51:06;;;;;;;;;3.25;2.00;;;;;-143.39;100.00;63593.47;5066897;28;45259;-83
2021/07/05 10:53:40;;;;;;;;;2.00;2.00;;;;;-143.39;100.00;63593.47;5073487;28;45219;-83
2021/07/05 10:56:29;;;;;;;;;1.25;1.25;;;;;-143.39;100.00;63593.47;5077811;28;45201;-85
2021/07/05 10:59:11;;;;;;;;;3.00;3.00;;;;;-143.39;100.00;63593.47;5062740;28;45252;-82
2021/07/05 11:01:41;;;;;;;;;5.00;3.00;;;;;-143.39;100.00;63593.47;5077243;28;46221;-82
2021/07/05 11:04:31;;;;;;;;;4.50;3.00;;;;;-143.39;100.00;63593.47;5067067;28;45321;-83
2021/07/05 11:06:58;;;;;;;;;2.00;2.00;;;;;-143.39;100.00;63593.47;5061860;28;45292;-83
2021/07/05 11:09:25;;;;;;;;;1.75;1.75;;;;;-143.39;100.00;63593.47;5064425;28;45275;-82
2021/07/05 11:11:53;;;;;;;;;1.00;1.00;;;;;-143.39;100.00;63593.47;5064745;28;45623;-82